createdAt,value
2022-12-31T00:01:03.638Z,1.10
2022-12-31T00:03:31.694Z,1.50
2022-12-31T00:06:00.112Z,1.77
2022-12-31T00:08:28.108Z,2.20
2022-12-31T00:10:56.213Z,2.30
2022-12-31T00:13:24.686Z,2.10
2022-12-31T00:15:56.500Z,2.65
2022-12-31T00:18:24.468Z,2.38
2022-12-31T00:20:52.485Z,3.25
2022-12-31T00:23:20.544Z,2.42
2022-12-31T00:25:48.533Z,1.98
2022-12-31T00:28:16.528Z,2.33
2022-12-31T00:30:44.562Z,2.22
2022-12-31T00:33:13.966Z,2.08
2022-12-31T00:35:42.019Z,2.38
2022-12-31T00:38:09.971Z,3.45
2022-12-31T00:40:38.030Z,1.90
2022-12-31T00:43:06.119Z,2.78
2022-12-31T00:45:34.016Z,1.98
2022-12-31T00:48:02.145Z,2.03
2022-12-31T00:50:31.805Z,2.45
2022-12-31T00:52:59.838Z,3.10
2022-12-31T00:55:27.805Z,8.65
2022-12-31T00:57:55.824Z,12.45
2022-12-31T01:00:24.510Z,11.68
2022-12-31T01:02:52.648Z,17.10
2022-12-31T01:05:20.755Z,14.73
2022-12-31T01:07:50.369Z,18.23
2022-12-31T01:10:38.508Z,13.75
2022-12-31T01:13:06.520Z,20.35
2022-12-31T01:15:35.567Z,16.02
2022-12-31T01:18:03.791Z,17.50
2022-12-31T01:20:31.934Z,13.43
2022-12-31T01:23:01.284Z,13.48
2022-12-31T01:25:29.236Z,16.70
2022-12-31T01:27:57.273Z,5.20
2022-12-31T01:30:25.225Z,6.97
2022-12-31T01:32:53.282Z,17.10
2022-12-31T01:35:21.330Z,20.98
2022-12-31T01:37:49.376Z,15.32
2022-12-31T01:40:21.000Z,13.40
2022-12-31T01:42:56.273Z,15.85
2022-12-31T01:45:24.856Z,12.27
2022-12-31T01:47:57.237Z,12.05
2022-12-31T01:50:29.076Z,10.20
2022-12-31T01:53:00.305Z,13.60
2022-12-31T01:55:34.641Z,10.82
2022-12-31T01:58:07.478Z,8.70
2022-12-31T02:00:35.946Z,11.13
2022-12-31T02:03:04.915Z,8.35
2022-12-31T02:05:40.022Z,9.25
2022-12-31T02:08:08.664Z,7.32
2022-12-31T02:10:38.017Z,10.50
2022-12-31T02:13:06.428Z,9.77
2022-12-31T02:15:52.207Z,9.25
2022-12-31T02:18:27.680Z,10.00
2022-12-31T02:21:20.419Z,9.30
2022-12-31T02:24:09.694Z,6.07
2022-12-31T02:27:02.408Z,9.02
2022-12-31T02:30:12.463Z,9.65
2022-12-31T02:32:52.715Z,5.15
2022-12-31T02:35:25.639Z,7.47
2022-12-31T02:38:00.126Z,6.60
2022-12-31T02:40:28.719Z,7.90
2022-12-31T02:42:56.659Z,7.20
2022-12-31T02:45:30.893Z,8.65
2022-12-31T02:48:11.386Z,6.80
2022-12-31T02:50:55.696Z,6.65
2022-12-31T02:53:45.499Z,6.85
2022-12-31T02:56:19.817Z,5.97
2022-12-31T02:59:16.878Z,6.75
2022-12-31T03:02:14.822Z,6.20
2022-12-31T03:04:45.004Z,8.07
2022-12-31T03:07:15.136Z,6.10
2022-12-31T03:09:43.272Z,6.18
2022-12-31T03:12:31.565Z,5.85
2022-12-31T03:14:59.807Z,6.22
2022-12-31T03:17:29.154Z,7.18
2022-12-31T03:20:14.717Z,5.38
2022-12-31T03:22:43.862Z,5.80
2022-12-31T03:25:32.053Z,6.78
2022-12-31T03:28:01.002Z,6.20
2022-12-31T03:30:29.272Z,5.18
2022-12-31T03:32:59.277Z,6.68
2022-12-31T03:35:29.529Z,6.47
2022-12-31T03:37:57.841Z,6.30
2022-12-31T03:40:27.825Z,6.43
2022-12-31T03:42:56.237Z,6.38
2022-12-31T03:45:25.071Z,7.97
2022-12-31T03:47:53.619Z,4.78
2022-12-31T03:50:24.464Z,5.43
2022-12-31T03:52:52.466Z,5.72
2022-12-31T03:55:20.891Z,5.72
2022-12-31T03:57:48.849Z,6.25
2022-12-31T04:00:19.551Z,7.95
2022-12-31T04:02:48.254Z,4.80
2022-12-31T04:05:17.207Z,5.25
2022-12-31T04:07:46.930Z,5.13
2022-12-31T04:10:17.998Z,4.45
2022-12-31T04:12:46.360Z,7.07
2022-12-31T04:15:18.259Z,5.68
2022-12-31T04:17:46.681Z,4.10
2022-12-31T04:20:15.028Z,5.57
2022-12-31T04:22:44.129Z,3.97
2022-12-31T04:25:13.655Z,4.65
2022-12-31T04:27:43.698Z,4.15
2022-12-31T04:30:15.280Z,2.60
2022-12-31T04:32:43.329Z,3.60
2022-12-31T04:35:12.720Z,4.35
2022-12-31T04:37:40.802Z,4.10
2022-12-31T04:40:10.222Z,5.38
2022-12-31T04:45:11.161Z,5.35
2022-12-31T04:47:39.079Z,3.92
2022-12-31T04:50:07.890Z,2.92
2022-12-31T04:52:42.341Z,4.55
2022-12-31T04:55:11.059Z,4.05
2022-12-31T04:57:43.617Z,3.28
2022-12-31T05:00:12.579Z,2.70
2022-12-31T05:02:40.764Z,2.90
2022-12-31T05:05:09.743Z,2.80
2022-12-31T05:07:37.698Z,4.88
2022-12-31T05:10:06.621Z,3.58
2022-12-31T05:12:34.623Z,2.80
2022-12-31T05:15:04.112Z,4.25
2022-12-31T05:17:32.091Z,2.17
2022-12-31T05:20:00.041Z,3.15
2022-12-31T05:22:31.036Z,3.20
2022-12-31T05:27:32.092Z,2.53
2022-12-31T05:30:00.684Z,3.67
2022-12-31T05:32:30.083Z,2.90
2022-12-31T05:34:59.814Z,2.67
2022-12-31T05:37:30.393Z,3.00
2022-12-31T05:39:58.875Z,3.58
2022-12-31T05:42:27.311Z,2.70
2022-12-31T05:44:55.381Z,2.40
2022-12-31T05:47:23.541Z,2.50
2022-12-31T05:49:53.020Z,3.47
2022-12-31T05:52:21.666Z,6.47
2022-12-31T05:54:49.660Z,4.47
2022-12-31T05:57:17.655Z,3.25
2022-12-31T05:59:45.626Z,2.95
2022-12-31T06:02:13.624Z,3.13
2022-12-31T06:04:41.768Z,3.05
2022-12-31T06:07:11.169Z,4.07
2022-12-31T06:09:39.228Z,3.75
2022-12-31T06:12:07.900Z,3.95
2022-12-31T06:14:39.561Z,2.75
2022-12-31T06:17:10.516Z,4.57
2022-12-31T06:19:38.519Z,2.90
2022-12-31T06:22:10.902Z,3.03
2022-12-31T06:24:38.911Z,2.70
2022-12-31T06:27:06.947Z,3.42
2022-12-31T06:29:34.930Z,3.78
2022-12-31T06:32:02.979Z,2.53
2022-12-31T06:34:30.898Z,2.10
2022-12-31T06:36:59.596Z,1.85
2022-12-31T06:39:29.253Z,2.63
2022-12-31T06:41:57.246Z,3.05
2022-12-31T06:44:25.152Z,5.90
2022-12-31T06:46:53.297Z,2.67
2022-12-31T06:49:21.377Z,1.58
2022-12-31T06:51:49.409Z,2.50
2022-12-31T06:54:17.421Z,1.77
2022-12-31T06:56:47.363Z,2.22
2022-12-31T06:59:26.100Z,2.35
2022-12-31T07:02:13.656Z,3.00
2022-12-31T07:05:10.533Z,2.95
2022-12-31T07:07:49.417Z,1.88
2022-12-31T07:10:29.951Z,1.73
2022-12-31T07:13:12.996Z,1.75
2022-12-31T07:16:06.916Z,1.92
2022-12-31T07:18:41.937Z,2.38
2022-12-31T07:21:14.307Z,2.17
2022-12-31T07:23:45.199Z,2.72
2022-12-31T07:26:23.607Z,2.53
2022-12-31T07:29:02.089Z,1.85
2022-12-31T07:31:46.295Z,1.52
2022-12-31T07:34:25.397Z,1.80
2022-12-31T07:37:04.456Z,2.20
2022-12-31T07:39:40.659Z,2.22
2022-12-31T07:42:16.547Z,5.47
2022-12-31T07:44:57.571Z,2.13
2022-12-31T07:47:27.776Z,2.38
2022-12-31T07:49:57.277Z,2.08
2022-12-31T07:52:28.909Z,2.40
2022-12-31T07:54:56.937Z,3.28
2022-12-31T07:57:35.633Z,1.88
2022-12-31T08:00:09.326Z,3.45
2022-12-31T08:03:02.284Z,3.47
2022-12-31T08:05:35.222Z,1.67
2022-12-31T08:08:18.272Z,2.03
2022-12-31T08:10:54.647Z,2.42
2022-12-31T08:13:22.883Z,4.30
2022-12-31T08:15:53.183Z,1.88
2022-12-31T08:18:21.721Z,3.72
2022-12-31T08:21:00.932Z,1.30
2022-12-31T08:23:38.043Z,3.25
2022-12-31T08:26:20.245Z,3.58
2022-12-31T08:28:57.603Z,3.25
2022-12-31T08:31:35.100Z,2.20
2022-12-31T08:34:18.358Z,3.38
2022-12-31T08:36:56.064Z,3.55
2022-12-31T08:39:35.786Z,2.35
2022-12-31T08:42:10.537Z,3.83
2022-12-31T08:44:44.173Z,2.38
2022-12-31T08:47:22.913Z,1.67
2022-12-31T08:49:51.278Z,3.33
2022-12-31T08:52:24.662Z,3.75
2022-12-31T08:54:53.351Z,4.05
2022-12-31T08:57:30.521Z,1.40
2022-12-31T09:00:07.098Z,2.92
2022-12-31T09:03:08.229Z,4.70
2022-12-31T09:05:48.382Z,1.98
2022-12-31T09:08:27.234Z,3.00
2022-12-31T09:11:00.237Z,1.83
2022-12-31T09:13:39.071Z,2.10
2022-12-31T09:16:15.180Z,1.65
2022-12-31T09:18:44.782Z,3.20
2022-12-31T09:21:16.091Z,2.40
2022-12-31T09:23:45.012Z,2.22
2022-12-31T09:26:33.726Z,2.42
2022-12-31T09:29:09.727Z,1.77
2022-12-31T09:31:46.434Z,3.38
2022-12-31T09:34:23.732Z,3.17
2022-12-31T09:36:57.910Z,1.77
2022-12-31T09:39:34.609Z,2.67
2022-12-31T09:42:44.260Z,2.55
2022-12-31T09:45:44.961Z,3.47
2022-12-31T09:48:48.293Z,3.92
2022-12-31T09:51:28.956Z,3.92
2022-12-31T09:54:19.349Z,2.15
2022-12-31T09:56:58.758Z,2.22
2022-12-31T09:59:37.872Z,2.40
2022-12-31T10:02:23.380Z,2.88
2022-12-31T10:05:16.077Z,1.88
2022-12-31T10:10:27.074Z,1.83
2022-12-31T10:13:09.526Z,2.45
2022-12-31T10:18:45.370Z,4.07
2022-12-31T10:21:29.221Z,3.33
2022-12-31T10:24:18.440Z,1.67
2022-12-31T10:27:01.471Z,1.98
2022-12-31T10:29:42.164Z,1.92
2022-12-31T10:32:27.784Z,4.10
2022-12-31T10:35:13.080Z,1.70
2022-12-31T10:37:47.862Z,2.50
2022-12-31T10:40:30.115Z,1.70
2022-12-31T10:43:34.101Z,3.85
2022-12-31T10:46:39.259Z,2.80
2022-12-31T10:49:36.878Z,2.08
2022-12-31T10:52:43.420Z,2.58
2022-12-31T10:55:41.965Z,2.67
2022-12-31T10:58:42.467Z,2.28
2022-12-31T11:01:18.858Z,2.78
2022-12-31T11:04:16.746Z,2.33
2022-12-31T11:07:10.543Z,2.70
2022-12-31T11:10:10.948Z,2.60
2022-12-31T11:13:10.388Z,2.83
2022-12-31T11:16:02.155Z,3.50
2022-12-31T11:18:39.808Z,4.07
2022-12-31T11:21:30.532Z,4.07
2022-12-31T11:24:07.032Z,2.85
2022-12-31T11:26:50.120Z,2.60
2022-12-31T11:29:37.470Z,3.10
2022-12-31T11:32:15.343Z,2.65
2022-12-31T11:35:15.712Z,3.25
2022-12-31T11:37:48.573Z,2.80
2022-12-31T11:40:29.454Z,5.53
2022-12-31T11:43:01.623Z,5.80
2022-12-31T11:45:55.731Z,2.08
2022-12-31T11:48:31.336Z,6.35
2022-12-31T11:51:15.599Z,12.35
2022-12-31T11:54:05.012Z,7.68
2022-12-31T11:56:38.007Z,9.80
2022-12-31T11:59:18.698Z,3.70
2022-12-31T12:01:56.198Z,6.27
2022-12-31T12:04:24.563Z,5.68
2022-12-31T12:06:54.826Z,4.40
2022-12-31T12:09:28.905Z,5.93
2022-12-31T12:12:01.761Z,6.05
2022-12-31T12:14:33.505Z,5.38
2022-12-31T12:17:05.615Z,4.85
2022-12-31T12:19:36.424Z,5.88
2022-12-31T12:22:12.638Z,6.10
2022-12-31T12:24:41.220Z,4.53
2022-12-31T12:27:22.632Z,4.97
2022-12-31T12:29:50.748Z,6.18
2022-12-31T12:32:21.697Z,4.75
2022-12-31T12:34:50.400Z,4.78
2022-12-31T12:37:33.454Z,5.28
2022-12-31T12:40:03.379Z,3.45
2022-12-31T12:42:32.303Z,3.55
2022-12-31T12:45:06.343Z,6.57
2022-12-31T12:47:36.200Z,3.10
2022-12-31T12:50:04.953Z,4.28
2022-12-31T12:52:59.195Z,6.05
2022-12-31T12:55:37.107Z,4.60
2022-12-31T12:58:19.289Z,6.15
2022-12-31T13:00:55.101Z,4.47
2022-12-31T13:04:33.452Z,3.20
2022-12-31T13:07:17.014Z,6.90
2022-12-31T13:10:06.506Z,3.38
2022-12-31T13:13:22.004Z,5.13
2022-12-31T13:15:37.711Z,3.00
2022-12-31T13:18:15.381Z,5.70
2022-12-31T13:20:51.750Z,7.03
2022-12-31T13:23:27.787Z,5.07
2022-12-31T13:26:06.802Z,4.50
2022-12-31T13:28:37.323Z,3.50
2022-12-31T13:31:10.467Z,6.10
2022-12-31T13:33:43.598Z,3.85
2022-12-31T13:36:17.879Z,4.68
2022-12-31T13:38:48.194Z,3.88
2022-12-31T13:41:20.118Z,3.63
2022-12-31T13:46:28.412Z,2.30
2022-12-31T13:49:01.426Z,5.85
2022-12-31T13:51:45.611Z,7.43
2022-12-31T13:54:24.371Z,5.47
2022-12-31T13:56:54.015Z,6.57
2022-12-31T13:59:27.565Z,4.95
2022-12-31T14:02:03.142Z,6.60
2022-12-31T14:04:35.618Z,4.38
2022-12-31T14:07:11.170Z,8.13
2022-12-31T14:09:39.482Z,7.90
2022-12-31T14:12:29.334Z,6.13
2022-12-31T14:15:07.523Z,8.85
2022-12-31T14:17:43.697Z,9.30
2022-12-31T14:20:22.792Z,6.82
2022-12-31T14:23:03.933Z,7.47
2022-12-31T14:25:39.185Z,8.00
2022-12-31T14:28:11.393Z,6.53
2022-12-31T14:33:23.622Z,10.80
2022-12-31T14:36:11.149Z,8.60
2022-12-31T14:38:54.719Z,12.60
2022-12-31T14:41:46.064Z,9.23
2022-12-31T14:44:28.299Z,5.80
2022-12-31T14:47:13.135Z,7.55
2022-12-31T14:49:51.196Z,8.98
2022-12-31T14:52:25.181Z,6.07
2022-12-31T14:55:02.897Z,6.35
2022-12-31T14:58:01.744Z,5.20
2022-12-31T15:00:29.376Z,6.45
2022-12-31T15:02:59.836Z,9.50
2022-12-31T15:05:31.942Z,6.43
2022-12-31T15:08:24.931Z,6.68
2022-12-31T15:11:11.795Z,6.22
2022-12-31T15:14:01.212Z,7.82
2022-12-31T15:16:44.985Z,5.85
2022-12-31T15:19:46.876Z,8.55
2022-12-31T15:22:31.710Z,7.63
2022-12-31T15:25:01.011Z,7.82
2022-12-31T15:27:36.912Z,12.90
2022-12-31T15:30:07.429Z,6.45
2022-12-31T15:32:39.652Z,10.32
2022-12-31T15:38:01.333Z,6.10
2022-12-31T15:40:29.996Z,8.75
2022-12-31T15:43:04.203Z,10.20
2022-12-31T15:45:35.201Z,8.23
2022-12-31T15:48:09.433Z,8.40
2022-12-31T15:50:40.194Z,7.20
2022-12-31T15:53:09.555Z,4.70
2022-12-31T15:55:42.615Z,6.47
2022-12-31T15:58:17.013Z,6.90
2022-12-31T16:01:12.979Z,6.40
2022-12-31T16:03:46.063Z,6.53
2022-12-31T16:06:17.055Z,6.63
2022-12-31T16:08:47.407Z,5.90
2022-12-31T16:11:18.894Z,7.07
2022-12-31T16:13:51.878Z,7.63
2022-12-31T16:16:23.048Z,10.27
2022-12-31T16:18:53.679Z,7.10
2022-12-31T16:21:32.705Z,8.93
2022-12-31T16:24:03.029Z,9.73
2022-12-31T16:26:35.805Z,11.63
2022-12-31T16:29:05.621Z,7.28
2022-12-31T16:31:33.967Z,8.77
2022-12-31T16:34:13.041Z,8.32
2022-12-31T16:36:41.184Z,8.70
2022-12-31T16:39:31.421Z,5.63
2022-12-31T16:42:17.666Z,5.82
2022-12-31T16:44:47.505Z,6.35
2022-12-31T16:47:21.490Z,8.70
2022-12-31T16:49:53.878Z,8.40
2022-12-31T16:52:28.819Z,8.57
2022-12-31T16:54:58.270Z,8.30
2022-12-31T16:57:32.379Z,8.07
2022-12-31T17:00:05.863Z,8.98
2022-12-31T17:02:39.171Z,5.60
2022-12-31T17:05:19.933Z,6.60
2022-12-31T17:08:00.211Z,9.35
2022-12-31T17:10:37.293Z,8.82
2022-12-31T17:13:27.692Z,27.50
2022-12-31T17:16:01.672Z,35.13
2022-12-31T17:18:35.964Z,34.50
2022-12-31T17:21:12.432Z,28.15
2022-12-31T17:23:42.615Z,20.95
2022-12-31T17:26:14.246Z,15.73
2022-12-31T17:28:45.864Z,16.83
2022-12-31T17:31:35.731Z,17.45
2022-12-31T17:34:33.812Z,16.50
2022-12-31T17:37:04.176Z,13.60
2022-12-31T17:39:47.382Z,13.15
2022-12-31T17:42:29.860Z,14.68
2022-12-31T17:45:01.411Z,14.30
2022-12-31T17:47:47.612Z,14.55
2022-12-31T17:50:21.660Z,13.27
2022-12-31T17:52:49.933Z,13.68
2022-12-31T17:55:18.170Z,13.15
2022-12-31T17:57:52.464Z,16.05
2022-12-31T18:00:26.038Z,12.68
2022-12-31T18:02:55.693Z,13.53
2022-12-31T18:05:27.609Z,11.77
2022-12-31T18:07:58.562Z,11.75
2022-12-31T18:10:30.279Z,10.98
2022-12-31T18:13:01.593Z,12.43
2022-12-31T18:15:34.047Z,12.00
2022-12-31T18:18:03.795Z,10.63
2022-12-31T18:20:31.808Z,10.70
2022-12-31T18:23:02.001Z,9.70
2022-12-31T18:25:30.153Z,10.73
2022-12-31T18:27:58.381Z,11.05
2022-12-31T18:30:29.071Z,11.18
2022-12-31T18:32:57.400Z,11.55
2022-12-31T18:35:58.112Z,13.55
2022-12-31T18:38:16.867Z,14.05
2022-12-31T18:40:50.452Z,12.63
2022-12-31T18:43:20.355Z,11.38
2022-12-31T18:45:49.716Z,11.23
2022-12-31T18:48:18.731Z,11.35
2022-12-31T18:50:49.693Z,10.02
2022-12-31T18:53:19.743Z,9.73
2022-12-31T18:55:50.467Z,10.82
2022-12-31T18:58:18.941Z,11.32
2022-12-31T19:00:48.851Z,11.02
2022-12-31T19:03:18.555Z,10.10
2022-12-31T19:05:51.108Z,8.00
2022-12-31T19:08:20.431Z,11.68
2022-12-31T19:10:50.444Z,9.15
2022-12-31T19:13:20.676Z,10.50
2022-12-31T19:15:50.533Z,9.88
2022-12-31T19:18:22.872Z,13.80
2022-12-31T19:20:53.893Z,11.65
2022-12-31T19:23:24.787Z,11.05
2022-12-31T19:26:03.143Z,9.43
2022-12-31T19:28:31.733Z,10.48
2022-12-31T19:30:59.912Z,10.35
2022-12-31T19:33:27.959Z,13.57
2022-12-31T19:35:57.524Z,21.70
2022-12-31T19:38:28.794Z,23.08
2022-12-31T19:40:57.134Z,20.98
2022-12-31T19:43:25.455Z,22.55
2022-12-31T19:45:53.931Z,21.63
2022-12-31T19:48:28.721Z,22.35
2022-12-31T19:51:01.775Z,19.58
2022-12-31T19:53:29.940Z,23.58
2022-12-31T19:55:58.052Z,20.58
2022-12-31T19:58:27.953Z,17.52
2022-12-31T20:01:02.471Z,17.73
2022-12-31T20:03:33.751Z,19.52
2022-12-31T20:06:06.196Z,18.75
2022-12-31T20:08:35.844Z,14.18
2022-12-31T20:11:09.374Z,19.70
2022-12-31T20:13:38.115Z,15.90
2022-12-31T20:16:08.856Z,17.08
2022-12-31T20:18:40.530Z,16.83
2022-12-31T20:21:12.460Z,20.02
2022-12-31T20:23:44.680Z,19.13
2022-12-31T20:26:17.745Z,16.83
2022-12-31T20:28:46.295Z,16.38
2022-12-31T20:31:22.010Z,17.67
2022-12-31T20:33:50.186Z,18.92
2022-12-31T20:36:19.840Z,18.70
2022-12-31T20:38:48.009Z,17.70
2022-12-31T20:41:17.896Z,15.80
2022-12-31T20:43:46.059Z,17.75
2022-12-31T20:46:18.976Z,16.50
2022-12-31T20:48:48.093Z,17.27
2022-12-31T20:51:17.902Z,16.92
2022-12-31T20:53:49.691Z,14.20
2022-12-31T20:56:18.086Z,17.42
2022-12-31T20:58:46.399Z,16.23
2022-12-31T21:01:15.491Z,13.68
2022-12-31T21:06:35.746Z,19.85
2022-12-31T21:09:07.385Z,16.05
2022-12-31T21:11:53.196Z,14.07
2022-12-31T21:14:21.327Z,12.93
2022-12-31T21:16:49.349Z,14.07
2022-12-31T21:19:17.404Z,13.23
2022-12-31T21:21:45.413Z,13.55
2022-12-31T21:24:20.211Z,17.30
2022-12-31T21:26:51.557Z,13.13
2022-12-31T21:29:19.559Z,16.23
2022-12-31T21:31:47.568Z,12.38
2022-12-31T21:34:15.517Z,10.90
2022-12-31T21:36:43.559Z,13.05
2022-12-31T21:39:11.590Z,14.20
2022-12-31T21:41:53.615Z,16.00
2022-12-31T21:44:23.536Z,13.45
2022-12-31T21:47:33.378Z,12.07
2022-12-31T21:49:43.819Z,11.98
2022-12-31T21:52:26.929Z,14.57
2022-12-31T21:55:12.970Z,13.07
2022-12-31T21:58:15.432Z,11.82
2022-12-31T22:00:58.224Z,13.48
2022-12-31T22:03:27.644Z,12.52
2022-12-31T22:05:58.951Z,13.82
2022-12-31T22:08:30.135Z,12.45
2022-12-31T22:10:58.662Z,10.68
2022-12-31T22:13:28.547Z,11.77
2022-12-31T22:16:04.333Z,14.23
2022-12-31T22:18:35.658Z,9.75
2022-12-31T22:21:05.944Z,12.63
2022-12-31T22:23:35.317Z,10.07
2022-12-31T22:26:04.355Z,9.73
2022-12-31T22:28:39.112Z,11.32
2022-12-31T22:31:07.982Z,11.02
2022-12-31T22:33:36.067Z,10.68
2022-12-31T22:36:06.935Z,13.02
2022-12-31T22:38:35.392Z,11.07
2022-12-31T22:41:05.448Z,10.48
2022-12-31T22:43:35.648Z,14.00
2022-12-31T22:46:10.709Z,12.18
2022-12-31T22:48:39.619Z,11.20
2022-12-31T22:51:08.839Z,12.35
2022-12-31T22:53:41.526Z,13.25
2022-12-31T22:56:12.824Z,13.82
2022-12-31T22:58:44.627Z,10.37
2022-12-31T23:01:19.377Z,13.23
2022-12-31T23:03:48.250Z,13.57
2022-12-31T23:06:16.699Z,14.43
2022-12-31T23:09:07.761Z,14.00
2022-12-31T23:11:37.041Z,12.93
2022-12-31T23:14:24.654Z,15.10
2022-12-31T23:17:30.834Z,14.55
2022-12-31T23:20:15.798Z,12.45
2022-12-31T23:23:04.923Z,16.33
2022-12-31T23:25:33.498Z,15.43
2022-12-31T23:28:01.712Z,15.20
2022-12-31T23:30:31.136Z,15.15
2022-12-31T23:32:59.114Z,17.33
2022-12-31T23:35:27.145Z,19.83
2022-12-31T23:37:55.754Z,19.30
2022-12-31T23:40:23.819Z,16.38
2022-12-31T23:42:51.829Z,19.60
2022-12-31T23:45:19.844Z,15.70
2022-12-31T23:47:49.317Z,18.27
2022-12-31T23:50:17.533Z,16.67
2022-12-31T23:52:45.569Z,18.73
2022-12-31T23:55:13.601Z,18.58
2022-12-31T23:57:44.698Z,21.67
